首爾, 大韓民國

2014年11月01日 12時40分 (GMT +0900)
IGYEONGG3 | Change Station
CLOSE
Current Station
個人氣象站
Location: Bucheon3, GYEONGGI
海拔: 115 ft
附近的氣象站

海拔 115 ft 37.53 °N, 126.83 °E | Updated 6 minutes ago

Mostly Cloudy
多雲
70.4 °F
感覺像 75 °F
1.0
風 變化 風 來自 東北偏北
Gusts 4.0 英里每小時

今日
高 -- | 低 -- °F
--% 降水機率
昨天
高 -- | 低 -- °F
Precip. -- 英寸
6:56 AM 5:34 PM
第一季, 62% visible
氣壓 29.95 英寸
能見度 6.2 英里
多雲 多雲時晴 4500 ft
多雲 18000 ft
高溫指數 75 °F
露點 57 °F
濕度 63%
降雨量 0.00 英寸
積雪深度 不適用。
紫外線 2.8 / 12
花粉 不適用。
空氣質素 不適用。
Flu Activity 不適用。
METAR RKSS 010300Z 29006KT 9999 SCT045 BKN180 20/07 Q1014 NOSIG

More Conditions Fewer Conditions

氣壓 29.95 英寸
能見度 6.2 英里
多雲 多雲時晴 4500 ft
多雲 18000 ft
高溫指數 75 °F
露點 57 °F
濕度 63%
降雨量 0.00 英寸
積雪深度 不適用。
紫外線 2.8 / 12
花粉 不適用。
空氣質素 不適用。
Flu Activity 不適用。
METAR RKSS 010300Z 29006KT 9999 SCT045 BKN180 20/07 Q1014 NOSIG

More Conditions Fewer Conditions

10-Day Weather Forecast

Almanac

天文

Nov. 01, 2014 昇起 降落
實際時間
民用曙暮光
航海曙暮光
天文學微明
月亮
可見光的長度
白晝時間
Tomorrow will be .
, % of the Moon is Illuminated

今天之最

國家高溫 國家低溫

Community

WunderPhotos

Upload Photos

1,766,847 照片已上傳!

WunderBlogs® & News

Nearby

空氣質素

  空氣質素 空氣質素指數 污染物
Not available.

積雪量

Station 深度 海拔

地震活動

城市 距離 時間和日期
顯示的最小幅度是2.5。

沿海水溫

地點 溫度

附近的氣象站